createdAt,value
2022-11-06T00:02:20.492Z,43.93
2022-11-06T00:07:24.818Z,44.39
2022-11-06T00:12:28.156Z,44.35
2022-11-06T00:17:34.465Z,44.48
2022-11-06T00:22:38.310Z,44.48
2022-11-06T00:27:43.190Z,44.57
2022-11-06T00:32:48.243Z,44.98
2022-11-06T00:37:51.608Z,44.58
2022-11-06T00:42:56.852Z,44.89
2022-11-06T00:48:01.584Z,44.95
2022-11-06T00:53:04.994Z,44.31
2022-11-06T00:58:08.414Z,44.83
2022-11-06T01:03:13.452Z,44.70
2022-11-06T01:08:16.891Z,44.77
2022-11-06T01:13:20.308Z,44.43
2022-11-06T01:18:25.122Z,44.67
2022-11-06T01:23:28.573Z,44.55
2022-11-06T01:28:32.466Z,44.29
2022-11-06T01:33:37.266Z,44.22
2022-11-06T01:38:42.005Z,44.26
2022-11-06T01:43:48.737Z,44.37
2022-11-06T01:48:56.845Z,44.63
2022-11-06T01:54:00.312Z,45.02
2022-11-06T01:59:06.100Z,44.96
2022-11-06T02:04:16.434Z,44.92
2022-11-06T02:09:20.615Z,44.92
2022-11-06T02:14:28.773Z,45.48
2022-11-06T02:19:51.339Z,45.29
2022-11-06T02:25:17.513Z,45.30
2022-11-06T02:30:22.496Z,45.18
2022-11-06T02:35:29.959Z,45.38
2022-11-06T02:40:35.864Z,45.08
2022-11-06T02:45:45.996Z,45.88
2022-11-06T02:50:50.554Z,45.56
2022-11-06T02:55:57.010Z,45.80
2022-11-06T03:01:04.931Z,45.60
2022-11-06T03:06:11.924Z,44.87
2022-11-06T03:11:17.318Z,45.76
2022-11-06T03:16:29.414Z,45.07
2022-11-06T03:21:38.302Z,45.52
2022-11-06T03:26:45.597Z,46.23
2022-11-06T03:31:52.850Z,45.98
2022-11-06T03:37:02.089Z,45.88
2022-11-06T03:42:07.811Z,45.45
2022-11-06T03:47:16.431Z,46.03
2022-11-06T03:52:26.314Z,46.01
2022-11-06T03:57:34.209Z,46.33
2022-11-06T04:02:41.400Z,46.89
2022-11-06T04:08:08.532Z,47.49
2022-11-06T04:13:29.770Z,47.67
2022-11-06T04:18:34.570Z,47.35
2022-11-06T04:23:45.392Z,47.89
2022-11-06T04:28:53.525Z,47.96
2022-11-06T04:34:01.770Z,47.80
2022-11-06T04:39:07.910Z,47.96
2022-11-06T04:44:16.257Z,47.41
2022-11-06T04:49:21.467Z,47.88
2022-11-06T04:54:24.993Z,47.75
2022-11-06T04:59:28.873Z,47.69
2022-11-06T05:04:33.712Z,47.88
2022-11-06T05:09:37.219Z,48.54
2022-11-06T05:14:40.675Z,47.86
2022-11-06T05:19:45.520Z,48.34
2022-11-06T05:24:49.038Z,47.49
2022-11-06T05:29:52.492Z,47.96
2022-11-06T05:34:57.313Z,47.92
2022-11-06T05:40:00.787Z,47.27
2022-11-06T05:45:04.516Z,47.73
2022-11-06T05:50:10.665Z,47.15
2022-11-06T05:55:15.308Z,46.77
2022-11-06T06:00:19.128Z,46.56
2022-11-06T06:05:23.894Z,46.84
2022-11-06T06:10:27.293Z,46.42
2022-11-06T06:15:30.704Z,46.83
2022-11-06T06:20:36.028Z,46.95
2022-11-06T06:25:39.409Z,46.91
2022-11-06T06:30:42.802Z,47.11
2022-11-06T06:35:47.584Z,47.59
2022-11-06T06:40:50.968Z,47.78
2022-11-06T06:45:54.353Z,47.82
2022-11-06T06:50:59.816Z,48.34
2022-11-06T06:56:03.333Z,48.06
2022-11-06T07:01:10.338Z,47.94
2022-11-06T07:06:15.272Z,48.35
2022-11-06T07:11:19.193Z,48.25
2022-11-06T07:16:22.760Z,48.36
2022-11-06T07:21:27.554Z,48.32
2022-11-06T07:26:30.980Z,48.23
2022-11-06T07:31:34.918Z,48.19
2022-11-06T07:36:39.886Z,48.06
2022-11-06T07:41:43.299Z,47.55
2022-11-06T07:46:46.778Z,47.24
2022-11-06T07:51:51.698Z,47.03
2022-11-06T07:56:55.100Z,46.47
2022-11-06T08:01:58.613Z,46.80
2022-11-06T08:07:03.450Z,46.49
2022-11-06T08:12:07.391Z,46.43
2022-11-06T08:17:10.814Z,45.80
2022-11-06T08:22:15.601Z,45.55
2022-11-06T08:27:18.985Z,45.48
2022-11-06T08:32:22.429Z,45.08
2022-11-06T08:37:27.306Z,45.12
2022-11-06T08:42:30.732Z,45.64
2022-11-06T08:47:34.095Z,44.85
2022-11-06T08:52:38.907Z,45.05
2022-11-06T08:57:42.311Z,44.44
2022-11-06T09:02:45.757Z,44.56
2022-11-06T09:07:50.732Z,44.11
2022-11-06T09:12:54.253Z,43.78
2022-11-06T09:17:57.864Z,42.76
2022-11-06T09:23:04.239Z,42.16
2022-11-06T09:28:07.688Z,41.97
2022-11-06T09:33:13.699Z,42.50
2022-11-06T09:38:19.029Z,42.21
2022-11-06T09:49:01.875Z,41.30
2022-11-06T09:54:13.205Z,40.87
2022-11-06T09:59:19.054Z,40.28
2022-11-06T10:04:30.440Z,40.12
2022-11-06T10:09:35.425Z,39.17
2022-11-06T10:14:48.469Z,39.26
2022-11-06T10:19:57.452Z,38.51
2022-11-06T10:25:06.733Z,38.95
2022-11-06T10:30:11.753Z,38.85
2022-11-06T10:35:20.318Z,38.52
2022-11-06T10:40:27.596Z,38.73
2022-11-06T10:45:31.360Z,38.52
2022-11-06T10:50:42.717Z,38.49
2022-11-06T10:56:11.280Z,38.18
2022-11-06T11:01:15.673Z,37.62
2022-11-06T11:06:19.150Z,37.45
2022-11-06T11:11:25.559Z,37.10
2022-11-06T11:16:30.944Z,37.20
2022-11-06T11:21:34.590Z,36.28
2022-11-06T11:26:43.526Z,35.93
2022-11-06T11:31:48.898Z,36.21
2022-11-06T11:36:54.800Z,35.65
2022-11-06T11:42:25.580Z,34.96
2022-11-06T11:47:28.960Z,34.93
2022-11-06T11:52:32.357Z,34.74
2022-11-06T11:57:37.080Z,35.03
2022-11-06T12:02:44.371Z,34.49
2022-11-06T12:07:50.447Z,34.35
2022-11-06T12:12:56.603Z,34.22
2022-11-06T12:18:03.181Z,34.00
2022-11-06T12:23:13.468Z,33.66
2022-11-06T12:28:20.080Z,34.68
2022-11-06T12:33:59.555Z,34.79
2022-11-06T12:38:52.696Z,34.73
2022-11-06T12:43:58.347Z,34.56
2022-11-06T12:49:12.205Z,33.49
2022-11-06T12:54:29.801Z,34.09
2022-11-06T12:59:41.261Z,35.06
2022-11-06T13:04:51.107Z,35.46
2022-11-06T13:10:01.965Z,35.76
2022-11-06T13:15:19.068Z,35.39
2022-11-06T13:20:27.186Z,35.22
2022-11-06T13:25:39.501Z,34.83
2022-11-06T13:30:45.266Z,34.44
2022-11-06T13:35:48.732Z,34.00
2022-11-06T13:40:53.825Z,33.69
2022-11-06T13:46:05.331Z,34.27
2022-11-06T13:51:15.318Z,34.34
2022-11-06T13:56:44.773Z,34.88
2022-11-06T14:01:58.330Z,35.51
2022-11-06T14:07:03.891Z,35.43
2022-11-06T14:12:15.079Z,35.57
2022-11-06T14:17:23.613Z,35.74
2022-11-06T14:22:28.570Z,35.37
2022-11-06T14:28:06.822Z,35.45
2022-11-06T14:33:14.007Z,35.45
2022-11-06T14:38:35.232Z,35.67
2022-11-06T14:43:38.612Z,35.27
2022-11-06T14:48:45.529Z,35.88
2022-11-06T14:53:50.682Z,35.67
2022-11-06T14:58:56.036Z,35.67
2022-11-06T15:04:03.137Z,35.40
2022-11-06T15:09:07.776Z,35.81
2022-11-06T15:14:48.528Z,36.26
2022-11-06T15:20:01.551Z,36.76
2022-11-06T15:25:18.690Z,36.87
2022-11-06T15:30:22.388Z,36.87
2022-11-06T15:35:28.512Z,37.35
2022-11-06T15:40:33.858Z,37.48
2022-11-06T15:45:37.320Z,37.71
2022-11-06T15:50:43.746Z,37.71
2022-11-06T15:55:53.000Z,38.45
2022-11-06T16:00:56.534Z,37.93
2022-11-06T16:06:04.151Z,37.81
2022-11-06T16:11:13.112Z,37.49
2022-11-06T16:16:34.980Z,37.14
2022-11-06T16:21:39.851Z,37.83
2022-11-06T16:26:47.262Z,37.84
2022-11-06T16:32:00.005Z,37.71
2022-11-06T16:37:06.625Z,38.02
2022-11-06T16:42:26.394Z,37.78
2022-11-06T16:47:30.039Z,38.79
2022-11-06T16:52:38.795Z,38.25
2022-11-06T16:57:44.527Z,38.33
2022-11-06T17:02:50.119Z,38.62
2022-11-06T17:08:07.683Z,38.95
2022-11-06T17:13:17.169Z,38.98
2022-11-06T17:18:22.761Z,39.22
2022-11-06T17:23:28.421Z,39.24
2022-11-06T17:28:31.846Z,39.15
2022-11-06T17:33:35.255Z,39.72
2022-11-06T17:38:40.020Z,39.79
2022-11-06T17:43:43.374Z,39.83
2022-11-06T17:48:46.727Z,39.73
2022-11-06T17:53:51.476Z,39.44
2022-11-06T17:58:54.867Z,39.05
2022-11-06T18:03:58.246Z,39.19
2022-11-06T18:09:04.502Z,38.88
2022-11-06T18:14:08.121Z,39.19
2022-11-06T18:19:12.981Z,39.06
2022-11-06T18:24:17.686Z,38.38
2022-11-06T18:29:21.184Z,38.65
2022-11-06T18:34:24.640Z,38.08
2022-11-06T18:39:29.624Z,37.64
2022-11-06T18:44:34.952Z,37.58
2022-11-06T18:49:38.331Z,37.83
2022-11-06T18:54:43.114Z,38.20
2022-11-06T18:59:46.611Z,38.12
2022-11-06T19:04:50.055Z,38.04
2022-11-06T19:09:54.977Z,37.83
2022-11-06T19:14:58.384Z,37.86
2022-11-06T19:20:01.841Z,37.80
2022-11-06T19:25:07.621Z,38.24
2022-11-06T19:30:11.835Z,38.60
2022-11-06T19:35:15.852Z,38.18
2022-11-06T19:40:20.869Z,38.35
2022-11-06T19:45:24.966Z,38.18
2022-11-06T19:50:53.487Z,39.53
2022-11-06T19:55:53.196Z,40.21
2022-11-06T20:00:56.659Z,40.65
2022-11-06T20:06:04.877Z,42.24
2022-11-06T20:11:13.643Z,43.52
2022-11-06T20:16:19.601Z,44.35
2022-11-06T20:21:24.073Z,45.58
2022-11-06T20:26:29.101Z,45.38
2022-11-06T20:31:33.173Z,45.92
2022-11-06T20:36:36.730Z,46.52
2022-11-06T20:41:41.700Z,45.98
2022-11-06T20:46:47.751Z,45.61
2022-11-06T20:52:12.597Z,45.13
2022-11-06T20:57:16.666Z,44.90
2022-11-06T21:02:20.186Z,44.50
2022-11-06T21:07:23.945Z,44.70
2022-11-06T21:12:30.136Z,44.47
2022-11-06T21:17:33.575Z,44.68
2022-11-06T21:22:37.272Z,45.39
2022-11-06T21:27:42.239Z,45.64
2022-11-06T21:32:46.006Z,45.20
2022-11-06T21:37:49.645Z,45.37
2022-11-06T21:42:54.662Z,45.37
2022-11-06T21:47:58.197Z,45.62
2022-11-06T21:53:19.269Z,45.82
2022-11-06T21:58:24.283Z,45.29
2022-11-06T22:03:28.075Z,45.16
2022-11-06T22:08:31.618Z,44.88
2022-11-06T22:13:36.901Z,44.79
2022-11-06T22:18:41.021Z,44.80
2022-11-06T22:23:44.762Z,44.22
2022-11-06T22:28:49.730Z,44.74
2022-11-06T22:33:54.081Z,44.58
2022-11-06T22:38:59.690Z,44.94
2022-11-06T22:44:05.353Z,44.53
2022-11-06T22:49:08.967Z,44.75
2022-11-06T22:54:12.517Z,44.57
2022-11-06T22:59:17.854Z,44.28
2022-11-06T23:04:21.394Z,44.41
2022-11-06T23:09:24.985Z,44.22
2022-11-06T23:14:31.415Z,44.22
2022-11-06T23:19:34.992Z,44.44
2022-11-06T23:24:38.582Z,44.08
2022-11-06T23:29:43.498Z,43.89
2022-11-06T23:34:46.988Z,44.02
2022-11-06T23:39:50.493Z,43.95
2022-11-06T23:45:12.675Z,43.73
2022-11-06T23:50:16.610Z,43.42
2022-11-06T23:55:20.279Z,43.84
